createdAt,value
2022-11-21T00:02:35.155Z,44.27
2022-11-21T00:05:04.429Z,45.27
2022-11-21T00:07:43.546Z,47.10
2022-11-21T00:10:26.641Z,47.40
2022-11-21T00:12:55.274Z,47.80
2022-11-21T00:15:24.777Z,48.63
2022-11-21T00:17:53.660Z,46.60
2022-11-21T00:20:25.364Z,48.73
2022-11-21T00:23:04.774Z,48.60
2022-11-21T00:25:36.450Z,47.47
2022-11-21T00:28:22.913Z,48.27
2022-11-21T00:31:02.875Z,45.97
2022-11-21T00:33:33.441Z,47.47
2022-11-21T00:36:06.496Z,48.50
2022-11-21T00:38:35.546Z,48.27
2022-11-21T00:41:07.477Z,48.53
2022-11-21T00:43:36.735Z,47.00
2022-11-21T00:46:04.325Z,47.40
2022-11-21T00:48:33.821Z,50.27
2022-11-21T00:51:00.920Z,51.10
2022-11-21T00:53:28.063Z,47.77
2022-11-21T00:55:57.746Z,48.27
2022-11-21T00:58:24.533Z,46.20
2022-11-21T01:00:51.426Z,49.63
2022-11-21T01:03:20.340Z,49.23
2022-11-21T01:05:47.053Z,49.60
2022-11-21T01:08:18.963Z,49.83
2022-11-21T01:10:45.714Z,50.10
2022-11-21T01:13:14.564Z,48.67
2022-11-21T01:15:43.527Z,49.97
2022-11-21T01:18:10.546Z,48.37
2022-11-21T01:20:40.458Z,49.23
2022-11-21T01:23:07.196Z,48.73
2022-11-21T01:25:36.400Z,48.70
2022-11-21T01:28:06.166Z,49.27
2022-11-21T01:30:32.935Z,50.30
2022-11-21T01:33:01.807Z,48.93
2022-11-21T01:35:31.205Z,49.37
2022-11-21T01:37:57.894Z,49.93
2022-11-21T01:40:24.627Z,50.60
2022-11-21T01:43:02.976Z,50.47
2022-11-21T01:45:59.111Z,49.50
2022-11-21T01:48:36.083Z,48.70
2022-11-21T01:51:27.544Z,50.53
2022-11-21T01:54:01.490Z,50.13
2022-11-21T01:56:32.273Z,50.33
2022-11-21T01:58:59.862Z,48.40
2022-11-21T02:01:27.112Z,50.60
2022-11-21T02:03:55.953Z,49.73
2022-11-21T02:06:22.677Z,48.67
2022-11-21T02:08:49.498Z,50.73
2022-11-21T02:11:18.734Z,49.50
2022-11-21T02:13:45.427Z,48.70
2022-11-21T02:16:14.706Z,48.73
2022-11-21T02:18:41.380Z,50.10
2022-11-21T02:21:25.885Z,50.70
2022-11-21T02:23:56.326Z,50.17
2022-11-21T02:26:25.913Z,49.60
2022-11-21T02:28:52.653Z,51.53
2022-11-21T02:31:19.334Z,50.37
2022-11-21T02:33:46.073Z,50.20
2022-11-21T02:36:37.700Z,50.00
2022-11-21T02:39:06.284Z,50.90
2022-11-21T02:41:32.972Z,51.03
2022-11-21T02:44:02.647Z,50.10
2022-11-21T02:46:29.632Z,51.87
2022-11-21T02:49:01.215Z,47.93
2022-11-21T02:51:30.189Z,47.50
2022-11-21T02:53:56.969Z,49.53
2022-11-21T02:56:23.938Z,50.70
2022-11-21T02:58:51.139Z,49.63
2022-11-21T03:01:17.967Z,50.67
2022-11-21T03:03:47.044Z,52.77
2022-11-21T03:06:13.739Z,51.53
2022-11-21T03:08:42.756Z,49.07
2022-11-21T03:11:09.497Z,49.80
2022-11-21T03:13:36.266Z,47.87
2022-11-21T03:16:03.046Z,49.90
2022-11-21T03:18:29.783Z,49.67
2022-11-21T03:20:57.719Z,49.73
2022-11-21T03:23:24.518Z,49.17
2022-11-21T03:25:51.215Z,49.17
2022-11-21T03:28:17.922Z,50.37
2022-11-21T03:30:45.082Z,50.10
2022-11-21T03:33:11.799Z,51.83
2022-11-21T03:35:40.566Z,50.37
2022-11-21T03:38:07.384Z,50.37
2022-11-21T03:40:34.096Z,47.27
2022-11-21T03:43:06.484Z,47.20
2022-11-21T03:45:37.871Z,49.23
2022-11-21T03:48:04.807Z,47.53
2022-11-21T03:50:34.213Z,50.80
2022-11-21T03:53:05.612Z,49.97
2022-11-21T03:55:32.329Z,51.17
2022-11-21T03:57:59.191Z,49.93
2022-11-21T04:00:28.615Z,49.27
2022-11-21T04:02:55.548Z,50.53
2022-11-21T04:05:24.487Z,49.80
2022-11-21T04:07:51.327Z,48.40
2022-11-21T04:10:18.127Z,48.43
2022-11-21T04:12:47.219Z,49.83
2022-11-21T04:15:14.244Z,47.37
2022-11-21T04:17:45.685Z,49.37
2022-11-21T04:20:12.594Z,49.30
2022-11-21T04:22:39.277Z,48.50
2022-11-21T04:25:07.046Z,48.27
2022-11-21T04:27:33.811Z,49.53
2022-11-21T04:30:00.570Z,49.27
2022-11-21T04:32:27.258Z,49.80
2022-11-21T04:34:54.005Z,49.33
2022-11-21T04:37:21.153Z,48.70
2022-11-21T04:39:47.942Z,48.67
2022-11-21T04:42:15.191Z,48.87
2022-11-21T04:44:41.966Z,48.40
2022-11-21T04:47:11.194Z,49.27
2022-11-21T04:49:42.626Z,48.90
2022-11-21T04:52:09.344Z,49.27
2022-11-21T04:54:38.368Z,47.43
2022-11-21T04:57:07.310Z,48.77
2022-11-21T04:59:34.002Z,47.87
2022-11-21T05:02:02.166Z,48.63
2022-11-21T05:04:29.016Z,48.27
2022-11-21T05:06:55.887Z,47.40
2022-11-21T05:09:24.735Z,49.73
2022-11-21T05:12:09.941Z,47.13
2022-11-21T05:14:39.151Z,47.93
2022-11-21T05:17:05.826Z,47.00
2022-11-21T05:19:32.565Z,46.80
2022-11-21T05:21:59.303Z,48.90
2022-11-21T05:24:30.964Z,49.93
2022-11-21T05:26:57.762Z,46.87
2022-11-21T05:29:28.101Z,47.63
2022-11-21T05:31:55.185Z,48.03
2022-11-21T05:34:21.925Z,46.93
2022-11-21T05:36:50.924Z,46.93
2022-11-21T05:39:17.617Z,45.80
2022-11-21T05:41:44.347Z,47.07
2022-11-21T05:44:11.101Z,48.53
2022-11-21T05:46:37.874Z,48.33
2022-11-21T05:49:04.663Z,46.70
2022-11-21T05:51:31.408Z,46.53
2022-11-21T05:53:59.050Z,46.30
2022-11-21T05:56:28.116Z,45.37
2022-11-21T05:58:55.586Z,45.53
2022-11-21T06:01:40.872Z,43.90
2022-11-21T06:04:08.314Z,45.90
2022-11-21T06:06:35.224Z,46.30
2022-11-21T06:09:04.557Z,44.30
2022-11-21T06:11:33.621Z,53.80
2022-11-21T06:14:00.333Z,45.53
2022-11-21T06:16:27.234Z,44.47
2022-11-21T06:18:58.716Z,44.93
2022-11-21T06:21:27.022Z,44.77
2022-11-21T06:23:55.007Z,43.70
2022-11-21T06:26:24.786Z,43.60
2022-11-21T06:28:51.596Z,46.80
2022-11-21T06:31:19.275Z,43.17
2022-11-21T06:33:48.352Z,46.00
2022-11-21T06:36:18.731Z,44.57
2022-11-21T06:38:45.669Z,42.53
2022-11-21T06:41:13.310Z,42.73
2022-11-21T06:43:40.676Z,49.63
2022-11-21T06:46:07.406Z,44.37
2022-11-21T06:48:37.441Z,43.90
2022-11-21T06:51:05.483Z,41.53
2022-11-21T06:53:34.794Z,42.87
2022-11-21T06:56:02.074Z,42.30
2022-11-21T06:58:29.298Z,41.67
2022-11-21T07:01:03.103Z,42.10
2022-11-21T07:03:29.835Z,40.10
2022-11-21T07:06:00.741Z,39.83
2022-11-21T07:08:28.518Z,47.50
2022-11-21T07:11:24.063Z,40.93
2022-11-21T07:13:48.021Z,39.13
2022-11-21T07:16:14.717Z,39.03
2022-11-21T07:18:42.317Z,44.50
2022-11-21T07:21:09.332Z,41.17
2022-11-21T07:23:36.069Z,39.67
2022-11-21T07:26:06.746Z,39.40
2022-11-21T07:28:33.724Z,42.47
2022-11-21T07:31:01.101Z,38.23
2022-11-21T07:33:30.253Z,39.30
2022-11-21T07:36:02.220Z,45.73
2022-11-21T07:38:31.404Z,40.77
2022-11-21T07:41:03.130Z,37.17
2022-11-21T07:43:29.844Z,38.23
2022-11-21T07:45:56.688Z,37.03
2022-11-21T07:48:23.428Z,37.03
2022-11-21T07:50:50.171Z,38.37
2022-11-21T07:53:16.950Z,40.63
2022-11-21T07:55:46.353Z,39.27
2022-11-21T07:58:14.696Z,37.80
2022-11-21T08:00:43.062Z,38.03
2022-11-21T08:03:14.682Z,39.17
2022-11-21T08:05:42.585Z,37.07
2022-11-21T08:08:12.400Z,36.53
2022-11-21T08:10:42.437Z,37.10
2022-11-21T08:13:09.258Z,36.70
2022-11-21T08:15:36.301Z,34.77
2022-11-21T08:18:17.215Z,35.20
2022-11-21T08:20:43.950Z,37.00
2022-11-21T08:23:11.315Z,34.43
2022-11-21T08:25:41.090Z,34.10
2022-11-21T08:28:13.148Z,33.00
2022-11-21T08:30:40.113Z,33.47
2022-11-21T08:33:06.983Z,32.27
2022-11-21T08:35:38.088Z,33.23
2022-11-21T08:38:05.054Z,33.73
2022-11-21T08:40:31.806Z,32.37
2022-11-21T08:50:42.693Z,31.57
2022-11-21T08:53:13.940Z,31.50
2022-11-21T09:03:35.326Z,31.40
2022-11-21T09:06:02.076Z,35.80
2022-11-21T09:08:29.524Z,35.23
2022-11-21T09:10:56.336Z,34.90
2022-11-21T09:13:23.564Z,35.80
2022-11-21T09:16:08.994Z,36.07
2022-11-21T09:18:43.411Z,38.27
2022-11-21T09:21:17.066Z,36.60
2022-11-21T09:23:46.998Z,38.37
2022-11-21T09:26:13.895Z,39.17
2022-11-21T09:28:43.361Z,37.17
2022-11-21T09:31:12.597Z,37.03
2022-11-21T09:33:41.919Z,36.33
2022-11-21T09:36:16.014Z,35.93
2022-11-21T09:38:42.734Z,38.67
2022-11-21T09:41:43.764Z,38.77
2022-11-21T09:44:58.346Z,38.77
2022-11-21T09:47:32.275Z,38.43
2022-11-21T09:50:16.708Z,36.87
2022-11-21T09:52:51.633Z,37.13
2022-11-21T09:55:43.516Z,38.27
2022-11-21T10:02:23.670Z,39.33
2022-11-21T10:04:55.493Z,40.57
2022-11-21T10:07:27.228Z,40.67
2022-11-21T10:09:54.058Z,41.23
2022-11-21T10:13:12.363Z,41.63
2022-11-21T10:15:47.155Z,39.00
2022-11-21T10:23:01.051Z,38.17
2022-11-21T10:42:19.116Z,36.83
2022-11-21T10:44:59.437Z,33.33
2022-11-21T11:02:40.825Z,32.70
2022-11-21T11:06:05.723Z,33.37
2022-11-21T11:08:49.433Z,31.33
2022-11-21T11:12:02.929Z,33.10
2022-11-21T11:14:58.431Z,30.90
2022-11-21T11:17:32.935Z,30.33
2022-11-21T11:27:30.906Z,31.83
2022-11-21T11:38:06.094Z,31.77
2022-11-21T11:41:38.414Z,29.77
2022-11-21T11:44:28.390Z,30.13
2022-11-21T11:50:46.929Z,28.30
2022-11-21T11:53:25.766Z,29.50
2022-11-21T11:55:55.298Z,28.70
2022-11-21T11:58:36.978Z,29.50
2022-11-21T12:01:13.525Z,30.27
2022-11-21T12:03:52.038Z,29.70
2022-11-21T12:06:22.118Z,31.10
2022-11-21T12:08:58.188Z,28.57
2022-11-21T12:12:00.543Z,28.57
2022-11-21T12:14:50.280Z,26.97
2022-11-21T12:17:24.242Z,27.17
2022-11-21T12:19:53.485Z,27.90
2022-11-21T12:22:20.243Z,26.33
2022-11-21T12:24:48.106Z,27.23
2022-11-21T12:27:33.018Z,26.60
2022-11-21T12:30:05.728Z,27.70
2022-11-21T12:32:44.587Z,26.50
2022-11-21T12:35:25.055Z,28.17
2022-11-21T12:38:12.786Z,27.60
2022-11-21T12:40:48.324Z,28.47
2022-11-21T12:43:43.270Z,26.40
2022-11-21T12:46:28.435Z,28.20
2022-11-21T12:49:26.877Z,29.53
2022-11-21T12:52:18.033Z,31.03
2022-11-21T12:55:09.432Z,29.50
2022-11-21T12:57:46.014Z,30.70
2022-11-21T13:00:22.651Z,29.53
2022-11-21T13:02:52.131Z,30.40
2022-11-21T13:05:24.815Z,29.97
2022-11-21T13:08:02.203Z,30.63
2022-11-21T13:10:28.949Z,30.73
2022-11-21T13:13:18.187Z,31.50
2022-11-21T13:15:55.407Z,33.17
2022-11-21T13:18:28.716Z,31.47
2022-11-21T13:20:55.595Z,31.37
2022-11-21T13:23:35.470Z,30.27
2022-11-21T13:26:02.273Z,30.57
2022-11-21T13:28:33.551Z,30.43
2022-11-21T13:31:03.416Z,32.73
2022-11-21T13:34:24.691Z,31.60
2022-11-21T13:37:06.263Z,31.90
2022-11-21T13:39:34.196Z,33.00
2022-11-21T13:42:24.409Z,32.87
2022-11-21T13:44:53.712Z,32.10
2022-11-21T13:47:26.722Z,32.87
2022-11-21T13:50:31.439Z,32.23
2022-11-21T13:53:24.138Z,31.53
2022-11-21T13:55:58.011Z,33.67
2022-11-21T13:58:43.568Z,33.40
2022-11-21T14:01:34.304Z,32.67
2022-11-21T14:08:38.403Z,32.67
2022-11-21T14:11:25.349Z,33.00
2022-11-21T14:13:52.163Z,33.90
2022-11-21T14:16:48.707Z,33.47
2022-11-21T14:19:25.126Z,33.17
2022-11-21T14:21:53.160Z,35.30
2022-11-21T14:24:20.090Z,33.87
2022-11-21T14:26:48.339Z,35.13
2022-11-21T14:29:35.383Z,35.60
2022-11-21T14:32:02.142Z,35.10
2022-11-21T14:34:30.878Z,36.03
2022-11-21T14:37:02.832Z,35.67
2022-11-21T14:39:38.989Z,38.93
2022-11-21T14:42:18.065Z,37.30
2022-11-21T14:44:48.128Z,37.20
2022-11-21T14:47:21.528Z,39.33
2022-11-21T14:50:07.447Z,38.30
2022-11-21T14:52:40.727Z,38.33
2022-11-21T14:55:58.300Z,39.50
2022-11-21T14:58:30.827Z,40.10
2022-11-21T15:01:33.449Z,40.60
2022-11-21T15:04:27.013Z,43.73
2022-11-21T15:07:04.025Z,43.70
2022-11-21T15:12:31.883Z,46.93
2022-11-21T15:15:07.912Z,47.03
2022-11-21T15:17:35.139Z,48.10
2022-11-21T15:20:11.260Z,48.97
2022-11-21T15:22:39.273Z,48.07
2022-11-21T15:25:22.864Z,48.97
2022-11-21T15:28:04.822Z,48.07
2022-11-21T15:30:32.467Z,44.93
2022-11-21T15:33:11.621Z,53.97
2022-11-21T15:35:38.489Z,46.83
2022-11-21T15:38:20.380Z,47.03
2022-11-21T15:41:09.612Z,47.30
2022-11-21T15:43:54.316Z,46.70
2022-11-21T15:46:24.954Z,45.67
2022-11-21T15:48:54.853Z,45.50
2022-11-21T15:51:51.486Z,46.40
2022-11-21T15:54:25.323Z,45.20
2022-11-21T15:56:54.186Z,45.40
2022-11-21T15:59:23.460Z,44.57
2022-11-21T16:01:50.334Z,44.93
2022-11-21T16:04:22.363Z,45.50
2022-11-21T16:06:54.578Z,44.50
2022-11-21T16:09:21.356Z,44.97
2022-11-21T16:11:48.092Z,44.37
2022-11-21T16:14:15.889Z,45.73
2022-11-21T16:16:43.785Z,43.53
2022-11-21T16:19:11.552Z,44.63
2022-11-21T16:21:38.548Z,43.90
2022-11-21T16:24:05.435Z,44.77
2022-11-21T16:26:33.473Z,45.13
2022-11-21T16:29:00.759Z,44.07
2022-11-21T16:31:28.827Z,43.83
2022-11-21T16:33:55.730Z,43.13
2022-11-21T16:36:23.135Z,45.00
2022-11-21T16:38:49.969Z,43.83
2022-11-21T16:41:18.288Z,45.27
2022-11-21T16:43:47.262Z,44.77
2022-11-21T16:46:14.237Z,46.40
2022-11-21T16:48:41.590Z,45.50
2022-11-21T16:51:16.368Z,45.10
2022-11-21T16:53:48.070Z,44.27
2022-11-21T16:56:15.492Z,48.17
2022-11-21T16:58:42.386Z,44.20
2022-11-21T17:01:12.808Z,44.83
2022-11-21T17:03:40.176Z,46.33
2022-11-21T17:06:07.052Z,44.93
2022-11-21T17:08:35.113Z,45.30
2022-11-21T17:11:23.628Z,44.63
2022-11-21T17:13:50.992Z,44.77
2022-11-21T17:16:21.052Z,42.90
2022-11-21T17:18:48.018Z,44.43
2022-11-21T17:21:18.425Z,43.57
2022-11-21T17:23:45.618Z,45.70
2022-11-21T17:26:14.708Z,43.33
2022-11-21T17:28:45.856Z,42.97
2022-11-21T17:31:14.733Z,43.97
2022-11-21T17:33:41.948Z,44.00
2022-11-21T17:36:11.974Z,44.50
2022-11-21T17:38:39.981Z,42.77
2022-11-21T17:41:07.739Z,42.37
2022-11-21T17:43:37.713Z,44.10
2022-11-21T17:46:09.641Z,44.33
2022-11-21T17:48:53.189Z,43.33
2022-11-21T17:51:35.529Z,43.40
2022-11-21T17:54:02.441Z,44.77
2022-11-21T17:56:30.908Z,42.20
2022-11-21T18:03:28.699Z,43.17
2022-11-21T18:09:16.147Z,40.67
2022-11-21T18:15:06.624Z,42.57
2022-11-21T18:17:33.426Z,42.97
2022-11-21T18:20:00.446Z,42.93
2022-11-21T18:22:29.914Z,42.00
2022-11-21T18:25:08.738Z,40.07
2022-11-21T18:27:38.128Z,39.57
2022-11-21T18:30:05.594Z,41.87
2022-11-21T18:32:35.804Z,40.33
2022-11-21T18:35:43.053Z,41.23
2022-11-21T18:38:32.748Z,41.57
2022-11-21T18:41:06.255Z,40.80
2022-11-21T18:43:33.583Z,38.90
2022-11-21T18:46:12.482Z,40.17
2022-11-21T18:49:01.585Z,40.03
2022-11-21T18:51:34.752Z,40.67
2022-11-21T18:54:13.962Z,40.47
2022-11-21T19:00:30.437Z,40.80
2022-11-21T19:02:58.764Z,39.23
2022-11-21T19:05:28.372Z,39.47
2022-11-21T19:08:14.630Z,39.07
2022-11-21T19:10:43.492Z,38.27
2022-11-21T19:16:13.070Z,38.90
2022-11-21T19:18:41.793Z,39.53
2022-11-21T19:21:15.220Z,37.97
2022-11-21T19:23:44.326Z,39.17
2022-11-21T19:26:18.342Z,39.90
2022-11-21T19:28:46.098Z,39.53
2022-11-21T19:31:23.715Z,39.47
2022-11-21T19:33:50.675Z,38.43
2022-11-21T19:36:19.317Z,38.73
2022-11-21T19:38:50.663Z,39.07
2022-11-21T19:41:22.709Z,38.03
2022-11-21T19:43:50.895Z,38.77
2022-11-21T19:46:24.800Z,37.57
2022-11-21T19:48:55.685Z,37.73
2022-11-21T19:51:25.204Z,37.80
2022-11-21T19:53:52.076Z,37.50
2022-11-21T19:56:20.258Z,37.40
2022-11-21T19:58:47.340Z,39.00
2022-11-21T20:01:20.274Z,38.67
2022-11-21T20:03:52.428Z,36.30
2022-11-21T20:06:31.191Z,37.33
2022-11-21T20:09:01.526Z,39.07
2022-11-21T20:11:29.302Z,35.57
2022-11-21T20:14:04.826Z,38.53
2022-11-21T20:16:37.534Z,38.40
2022-11-21T20:19:12.039Z,37.80
2022-11-21T20:21:39.117Z,39.90
2022-11-21T20:24:19.681Z,40.23
2022-11-21T20:26:46.739Z,40.37
2022-11-21T20:29:33.225Z,41.17
2022-11-21T20:32:29.928Z,40.20
2022-11-21T20:38:24.354Z,40.20
2022-11-21T20:40:52.612Z,42.60
2022-11-21T20:43:19.562Z,42.97
2022-11-21T20:46:08.704Z,42.37
2022-11-21T20:48:49.878Z,40.97
2022-11-21T20:54:20.791Z,39.27
2022-11-21T20:56:51.824Z,40.17
2022-11-21T21:02:33.433Z,39.30
2022-11-21T21:05:00.457Z,39.07
2022-11-21T21:07:27.311Z,39.53
2022-11-21T21:09:55.870Z,38.13
2022-11-21T21:12:24.218Z,38.33
2022-11-21T21:14:51.071Z,39.67
2022-11-21T21:17:17.793Z,38.50
2022-11-21T21:19:45.053Z,36.87
2022-11-21T21:22:12.028Z,37.93
2022-11-21T21:24:39.162Z,38.53
2022-11-21T21:27:05.975Z,37.77
2022-11-21T22:03:05.897Z,36.00
2022-11-21T22:23:00.140Z,36.23
2022-11-21T22:25:32.760Z,35.77
2022-11-21T22:35:31.307Z,34.47
2022-11-21T22:42:07.172Z,35.83
2022-11-21T22:49:06.967Z,35.33
2022-11-21T22:50:52.160Z,34.83
2022-11-21T22:53:25.529Z,36.20
2022-11-21T23:14:07.066Z,35.07
2022-11-21T23:53:08.843Z,33.43
